sensor_id;sensor_type;location;lat;lon;timestamp;temperature;humidity
9542;DHT22;4809;48.224;8.572;2022-11-20T00:02:23;3.40;92.70
9542;DHT22;4809;48.224;8.572;2022-11-20T00:04:48;3.30;92.50
9542;DHT22;4809;48.224;8.572;2022-11-20T00:07:14;3.20;92.50
9542;DHT22;4809;48.224;8.572;2022-11-20T00:09:40;3.10;92.60
9542;DHT22;4809;48.224;8.572;2022-11-20T00:12:05;3.10;92.80
9542;DHT22;4809;48.224;8.572;2022-11-20T00:14:31;3.00;92.80
9542;DHT22;4809;48.224;8.572;2022-11-20T00:16:57;2.90;92.90
9542;DHT22;4809;48.224;8.572;2022-11-20T00:19:22;2.90;93.00
9542;DHT22;4809;48.224;8.572;2022-11-20T00:21:48;2.90;92.70
9542;DHT22;4809;48.224;8.572;2022-11-20T00:24:16;2.90;92.80
9542;DHT22;4809;48.224;8.572;2022-11-20T00:26:42;2.80;92.70
9542;DHT22;4809;48.224;8.572;2022-11-20T00:29:09;2.80;92.80
9542;DHT22;4809;48.224;8.572;2022-11-20T00:31:35;2.80;92.70
9542;DHT22;4809;48.224;8.572;2022-11-20T00:34:01;2.80;92.40
9542;DHT22;4809;48.224;8.572;2022-11-20T00:36:27;2.70;92.40
9542;DHT22;4809;48.224;8.572;2022-11-20T00:38:55;2.70;92.60
9542;DHT22;4809;48.224;8.572;2022-11-20T00:41:22;2.60;92.70
9542;DHT22;4809;48.224;8.572;2022-11-20T00:43:48;2.70;92.70
9542;DHT22;4809;48.224;8.572;2022-11-20T00:46:19;2.60;92.90
9542;DHT22;4809;48.224;8.572;2022-11-20T00:48:46;2.60;93.00
9542;DHT22;4809;48.224;8.572;2022-11-20T00:51:14;2.50;92.70
9542;DHT22;4809;48.224;8.572;2022-11-20T00:53:40;2.40;93.00
9542;DHT22;4809;48.224;8.572;2022-11-20T00:56:09;2.30;93.00
9542;DHT22;4809;48.224;8.572;2022-11-20T00:58:37;2.30;93.20
9542;DHT22;4809;48.224;8.572;2022-11-20T01:01:15;2.20;93.10
9542;DHT22;4809;48.224;8.572;2022-11-20T01:03:43;2.30;93.10
9542;DHT22;4809;48.224;8.572;2022-11-20T01:06:12;2.40;93.00
9542;DHT22;4809;48.224;8.572;2022-11-20T01:08:38;2.30;92.80
9542;DHT22;4809;48.224;8.572;2022-11-20T01:11:08;2.30;92.80
9542;DHT22;4809;48.224;8.572;2022-11-20T01:13:34;2.20;92.70
9542;DHT22;4809;48.224;8.572;2022-11-20T01:18:51;2.30;93.20
9542;DHT22;4809;48.224;8.572;2022-11-20T01:21:22;2.30;92.80
9542;DHT22;4809;48.224;8.572;2022-11-20T01:23:49;2.30;92.70
9542;DHT22;4809;48.224;8.572;2022-11-20T01:26:27;2.20;92.70
9542;DHT22;4809;48.224;8.572;2022-11-20T01:28:54;2.20;92.70
9542;DHT22;4809;48.224;8.572;2022-11-20T01:33:48;2.20;92.90
9542;DHT22;4809;48.224;8.572;2022-11-20T01:36:15;2.10;93.00
9542;DHT22;4809;48.224;8.572;2022-11-20T01:38:41;2.10;93.00
9542;DHT22;4809;48.224;8.572;2022-11-20T01:41:07;2.20;93.10
9542;DHT22;4809;48.224;8.572;2022-11-20T01:43:34;2.20;93.10
9542;DHT22;4809;48.224;8.572;2022-11-20T01:46:19;2.30;93.10
9542;DHT22;4809;48.224;8.572;2022-11-20T01:48:56;2.30;92.90
9542;DHT22;4809;48.224;8.572;2022-11-20T01:51:45;2.40;92.60
9542;DHT22;4809;48.224;8.572;2022-11-20T01:54:19;2.40;92.60
9542;DHT22;4809;48.224;8.572;2022-11-20T01:56:46;2.30;92.80
9542;DHT22;4809;48.224;8.572;2022-11-20T01:59:16;2.30;92.90
9542;DHT22;4809;48.224;8.572;2022-11-20T02:01:43;2.40;92.80
9542;DHT22;4809;48.224;8.572;2022-11-20T02:04:10;2.40;92.80
9542;DHT22;4809;48.224;8.572;2022-11-20T02:06:57;2.50;92.50
9542;DHT22;4809;48.224;8.572;2022-11-20T02:09:24;2.60;92.50
9542;DHT22;4809;48.224;8.572;2022-11-20T02:11:50;2.50;92.40
9542;DHT22;4809;48.224;8.572;2022-11-20T02:14:16;2.50;92.40
9542;DHT22;4809;48.224;8.572;2022-11-20T02:16:45;2.50;92.30
9542;DHT22;4809;48.224;8.572;2022-11-20T02:19:30;2.50;92.40
9542;DHT22;4809;48.224;8.572;2022-11-20T02:22:07;2.50;92.50
9542;DHT22;4809;48.224;8.572;2022-11-20T02:24:34;2.50;92.50
9542;DHT22;4809;48.224;8.572;2022-11-20T02:27:10;2.60;92.50
9542;DHT22;4809;48.224;8.572;2022-11-20T02:29:55;2.60;92.40
9542;DHT22;4809;48.224;8.572;2022-11-20T02:32:25;2.50;92.40
9542;DHT22;4809;48.224;8.572;2022-11-20T02:34:51;2.50;92.50
9542;DHT22;4809;48.224;8.572;2022-11-20T02:37:18;2.50;92.60
9542;DHT22;4809;48.224;8.572;2022-11-20T02:39:46;2.50;92.60
9542;DHT22;4809;48.224;8.572;2022-11-20T02:42:13;2.50;92.70
9542;DHT22;4809;48.224;8.572;2022-11-20T02:44:38;2.60;92.70
9542;DHT22;4809;48.224;8.572;2022-11-20T02:47:04;2.70;92.70
9542;DHT22;4809;48.224;8.572;2022-11-20T02:49:30;2.70;92.80
9542;DHT22;4809;48.224;8.572;2022-11-20T02:51:55;2.70;92.60
9542;DHT22;4809;48.224;8.572;2022-11-20T02:54:22;2.70;92.60
9542;DHT22;4809;48.224;8.572;2022-11-20T02:56:47;2.80;92.50
9542;DHT22;4809;48.224;8.572;2022-11-20T02:59:13;2.70;92.40
9542;DHT22;4809;48.224;8.572;2022-11-20T03:01:39;2.70;92.40
9542;DHT22;4809;48.224;8.572;2022-11-20T03:04:04;2.70;92.30
9542;DHT22;4809;48.224;8.572;2022-11-20T03:06:30;2.60;92.20
9542;DHT22;4809;48.224;8.572;2022-11-20T03:08:56;2.60;92.30
9542;DHT22;4809;48.224;8.572;2022-11-20T03:11:21;2.50;92.60
9542;DHT22;4809;48.224;8.572;2022-11-20T03:13:47;2.50;92.60
9542;DHT22;4809;48.224;8.572;2022-11-20T03:16:18;2.40;92.50
9542;DHT22;4809;48.224;8.572;2022-11-20T03:18:45;2.40;92.70
9542;DHT22;4809;48.224;8.572;2022-11-20T03:21:12;2.30;92.50
9542;DHT22;4809;48.224;8.572;2022-11-20T03:23:39;2.20;92.50
9542;DHT22;4809;48.224;8.572;2022-11-20T03:26:09;2.20;92.60
9542;DHT22;4809;48.224;8.572;2022-11-20T03:28:35;2.10;92.70
9542;DHT22;4809;48.224;8.572;2022-11-20T03:31:10;2.10;92.80
9542;DHT22;4809;48.224;8.572;2022-11-20T03:33:37;2.00;93.00
9542;DHT22;4809;48.224;8.572;2022-11-20T03:36:05;2.00;93.10
9542;DHT22;4809;48.224;8.572;2022-11-20T03:38:31;2.00;93.00
9542;DHT22;4809;48.224;8.572;2022-11-20T03:41:06;2.00;93.10
9542;DHT22;4809;48.224;8.572;2022-11-20T03:43:33;2.10;93.00
9542;DHT22;4809;48.224;8.572;2022-11-20T03:45:59;2.00;92.60
9542;DHT22;4809;48.224;8.572;2022-11-20T03:48:25;1.90;92.40
9542;DHT22;4809;48.224;8.572;2022-11-20T03:50:52;1.70;92.40
9542;DHT22;4809;48.224;8.572;2022-11-20T03:53:18;1.60;92.70
9542;DHT22;4809;48.224;8.572;2022-11-20T03:55:49;1.60;92.90
9542;DHT22;4809;48.224;8.572;2022-11-20T03:58:15;1.50;93.00
9542;DHT22;4809;48.224;8.572;2022-11-20T04:00:41;1.40;93.00
9542;DHT22;4809;48.224;8.572;2022-11-20T04:03:06;1.50;93.10
9542;DHT22;4809;48.224;8.572;2022-11-20T04:05:33;1.50;93.30
9542;DHT22;4809;48.224;8.572;2022-11-20T04:07:59;1.50;93.00
9542;DHT22;4809;48.224;8.572;2022-11-20T04:10:25;1.50;93.20
9542;DHT22;4809;48.224;8.572;2022-11-20T04:12:50;1.60;93.20
9542;DHT22;4809;48.224;8.572;2022-11-20T04:15:16;1.60;93.20
9542;DHT22;4809;48.224;8.572;2022-11-20T04:17:42;1.60;93.30
9542;DHT22;4809;48.224;8.572;2022-11-20T04:20:08;1.60;93.40
9542;DHT22;4809;48.224;8.572;2022-11-20T04:22:34;1.60;93.40
9542;DHT22;4809;48.224;8.572;2022-11-20T04:24:59;1.50;93.60
9542;DHT22;4809;48.224;8.572;2022-11-20T04:27:25;1.60;93.70
9542;DHT22;4809;48.224;8.572;2022-11-20T04:29:50;1.60;93.40
9542;DHT22;4809;48.224;8.572;2022-11-20T04:32:16;1.60;93.30
9542;DHT22;4809;48.224;8.572;2022-11-20T04:34:42;1.60;93.30
9542;DHT22;4809;48.224;8.572;2022-11-20T04:37:07;1.60;93.40
9542;DHT22;4809;48.224;8.572;2022-11-20T04:39:33;1.70;93.10
9542;DHT22;4809;48.224;8.572;2022-11-20T04:41:58;1.70;93.20
9542;DHT22;4809;48.224;8.572;2022-11-20T04:44:42;1.70;93.00
9542;DHT22;4809;48.224;8.572;2022-11-20T04:47:08;1.70;93.10
9542;DHT22;4809;48.224;8.572;2022-11-20T04:49:34;1.70;93.10
9542;DHT22;4809;48.224;8.572;2022-11-20T04:51:59;1.70;92.80
9542;DHT22;4809;48.224;8.572;2022-11-20T04:54:25;1.70;92.90
9542;DHT22;4809;48.224;8.572;2022-11-20T04:56:50;1.70;92.90
9542;DHT22;4809;48.224;8.572;2022-11-20T04:59:16;1.70;92.90
9542;DHT22;4809;48.224;8.572;2022-11-20T05:01:42;1.60;92.90
9542;DHT22;4809;48.224;8.572;2022-11-20T05:04:08;1.50;92.80
9542;DHT22;4809;48.224;8.572;2022-11-20T05:06:33;1.50;93.10
9542;DHT22;4809;48.224;8.572;2022-11-20T05:08:59;1.60;93.00
9542;DHT22;4809;48.224;8.572;2022-11-20T05:11:26;1.60;92.70
9542;DHT22;4809;48.224;8.572;2022-11-20T05:13:54;1.60;92.90
9542;DHT22;4809;48.224;8.572;2022-11-20T05:16:22;1.60;92.80
9542;DHT22;4809;48.224;8.572;2022-11-20T05:18:49;1.50;93.10
9542;DHT22;4809;48.224;8.572;2022-11-20T05:21:15;1.50;92.80
9542;DHT22;4809;48.224;8.572;2022-11-20T05:23:42;1.50;92.70
9542;DHT22;4809;48.224;8.572;2022-11-20T05:26:13;1.50;92.70
9542;DHT22;4809;48.224;8.572;2022-11-20T05:28:39;1.40;92.90
9542;DHT22;4809;48.224;8.572;2022-11-20T05:31:13;1.40;92.70
9542;DHT22;4809;48.224;8.572;2022-11-20T05:33:43;1.40;93.00
9542;DHT22;4809;48.224;8.572;2022-11-20T05:36:09;1.40;93.00
9542;DHT22;4809;48.224;8.572;2022-11-20T05:38:36;1.30;93.00
9542;DHT22;4809;48.224;8.572;2022-11-20T05:41:12;1.30;93.00
9542;DHT22;4809;48.224;8.572;2022-11-20T05:43:40;1.30;93.00
9542;DHT22;4809;48.224;8.572;2022-11-20T05:46:08;1.30;92.90
9542;DHT22;4809;48.224;8.572;2022-11-20T05:48:34;1.30;93.20
9542;DHT22;4809;48.224;8.572;2022-11-20T05:51:02;1.20;93.60
9542;DHT22;4809;48.224;8.572;2022-11-20T05:53:28;1.30;93.90
9542;DHT22;4809;48.224;8.572;2022-11-20T05:55:58;1.30;94.00
9542;DHT22;4809;48.224;8.572;2022-11-20T05:58:24;1.40;94.10
9542;DHT22;4809;48.224;8.572;2022-11-20T06:00:50;1.50;94.00
9542;DHT22;4809;48.224;8.572;2022-11-20T06:03:16;1.60;93.70
9542;DHT22;4809;48.224;8.572;2022-11-20T06:05:41;1.60;93.90
9542;DHT22;4809;48.224;8.572;2022-11-20T06:08:07;1.60;94.20
9542;DHT22;4809;48.224;8.572;2022-11-20T06:10:33;1.60;94.10
9542;DHT22;4809;48.224;8.572;2022-11-20T06:12:58;1.50;94.00
9542;DHT22;4809;48.224;8.572;2022-11-20T06:15:24;1.50;94.10
9542;DHT22;4809;48.224;8.572;2022-11-20T06:17:54;1.50;94.10
9542;DHT22;4809;48.224;8.572;2022-11-20T06:20:21;1.50;94.20
9542;DHT22;4809;48.224;8.572;2022-11-20T06:22:47;1.60;94.50
9542;DHT22;4809;48.224;8.572;2022-11-20T06:25:13;1.70;94.60
9542;DHT22;4809;48.224;8.572;2022-11-20T06:27:39;1.80;94.70
9542;DHT22;4809;48.224;8.572;2022-11-20T06:30:05;1.80;94.50
9542;DHT22;4809;48.224;8.572;2022-11-20T06:32:31;1.80;94.50
9542;DHT22;4809;48.224;8.572;2022-11-20T06:34:56;1.90;94.70
9542;DHT22;4809;48.224;8.572;2022-11-20T06:37:22;2.00;94.60
9542;DHT22;4809;48.224;8.572;2022-11-20T06:39:48;2.10;94.70
9542;DHT22;4809;48.224;8.572;2022-11-20T06:42:13;2.10;94.50
9542;DHT22;4809;48.224;8.572;2022-11-20T06:44:39;2.20;94.20
9542;DHT22;4809;48.224;8.572;2022-11-20T06:47:04;2.20;93.90
9542;DHT22;4809;48.224;8.572;2022-11-20T06:49:30;2.20;93.50
9542;DHT22;4809;48.224;8.572;2022-11-20T06:51:56;2.30;93.30
9542;DHT22;4809;48.224;8.572;2022-11-20T06:54:21;2.30;93.30
9542;DHT22;4809;48.224;8.572;2022-11-20T06:56:47;2.20;93.50
9542;DHT22;4809;48.224;8.572;2022-11-20T06:59:13;2.30;93.50
9542;DHT22;4809;48.224;8.572;2022-11-20T07:01:39;2.40;93.50
9542;DHT22;4809;48.224;8.572;2022-11-20T07:04:04;2.50;93.30
9542;DHT22;4809;48.224;8.572;2022-11-20T07:06:30;2.50;93.30
9542;DHT22;4809;48.224;8.572;2022-11-20T07:08:56;2.60;93.20
9542;DHT22;4809;48.224;8.572;2022-11-20T07:11:22;2.80;92.90
9542;DHT22;4809;48.224;8.572;2022-11-20T07:13:48;2.90;92.50
9542;DHT22;4809;48.224;8.572;2022-11-20T07:16:13;3.10;92.20
9542;DHT22;4809;48.224;8.572;2022-11-20T07:18:39;3.20;92.00
9542;DHT22;4809;48.224;8.572;2022-11-20T07:21:08;3.30;91.90
9542;DHT22;4809;48.224;8.572;2022-11-20T07:23:34;3.20;91.70
9542;DHT22;4809;48.224;8.572;2022-11-20T07:26:07;3.20;92.20
9542;DHT22;4809;48.224;8.572;2022-11-20T07:28:33;3.30;91.90
9542;DHT22;4809;48.224;8.572;2022-11-20T07:30:59;3.50;91.90
9542;DHT22;4809;48.224;8.572;2022-11-20T07:33:25;3.70;91.90
9542;DHT22;4809;48.224;8.572;2022-11-20T07:35:51;4.00;91.50
9542;DHT22;4809;48.224;8.572;2022-11-20T07:38:17;4.20;91.00
9542;DHT22;4809;48.224;8.572;2022-11-20T07:40:42;4.40;90.60
9542;DHT22;4809;48.224;8.572;2022-11-20T07:43:08;4.70;90.40
9542;DHT22;4809;48.224;8.572;2022-11-20T07:45:34;4.70;90.30
9542;DHT22;4809;48.224;8.572;2022-11-20T07:47:59;4.70;90.20
9542;DHT22;4809;48.224;8.572;2022-11-20T07:50:25;4.70;90.30
9542;DHT22;4809;48.224;8.572;2022-11-20T07:52:51;4.80;90.10
9542;DHT22;4809;48.224;8.572;2022-11-20T07:55:17;4.80;90.40
9542;DHT22;4809;48.224;8.572;2022-11-20T07:57:43;4.60;90.60
9542;DHT22;4809;48.224;8.572;2022-11-20T08:00:11;4.40;91.00
9542;DHT22;4809;48.224;8.572;2022-11-20T08:02:38;4.20;91.40
9542;DHT22;4809;48.224;8.572;2022-11-20T08:05:04;4.20;91.70
9542;DHT22;4809;48.224;8.572;2022-11-20T08:07:41;4.10;91.90
9542;DHT22;4809;48.224;8.572;2022-11-20T08:10:09;4.10;91.80
9542;DHT22;4809;48.224;8.572;2022-11-20T08:12:35;4.10;91.80
9542;DHT22;4809;48.224;8.572;2022-11-20T08:15:19;4.20;92.00
9542;DHT22;4809;48.224;8.572;2022-11-20T08:17:45;4.40;91.80
9542;DHT22;4809;48.224;8.572;2022-11-20T08:20:11;4.50;91.40
9542;DHT22;4809;48.224;8.572;2022-11-20T08:22:37;4.60;91.30
9542;DHT22;4809;48.224;8.572;2022-11-20T08:25:02;4.80;90.80
9542;DHT22;4809;48.224;8.572;2022-11-20T08:27:28;4.80;90.90
9542;DHT22;4809;48.224;8.572;2022-11-20T08:29:54;4.80;90.90
9542;DHT22;4809;48.224;8.572;2022-11-20T08:32:19;4.90;90.90
9542;DHT22;4809;48.224;8.572;2022-11-20T08:34:45;4.90;91.00
9542;DHT22;4809;48.224;8.572;2022-11-20T08:37:11;4.90;90.90
9542;DHT22;4809;48.224;8.572;2022-11-20T08:39:37;4.90;91.10
9542;DHT22;4809;48.224;8.572;2022-11-20T08:42:07;4.80;91.30
9542;DHT22;4809;48.224;8.572;2022-11-20T08:44:33;4.80;91.10
9542;DHT22;4809;48.224;8.572;2022-11-20T08:46:58;4.80;91.30
9542;DHT22;4809;48.224;8.572;2022-11-20T08:49:25;4.90;91.30
9542;DHT22;4809;48.224;8.572;2022-11-20T08:51:53;4.90;91.00
9542;DHT22;4809;48.224;8.572;2022-11-20T08:54:20;4.90;91.20
9542;DHT22;4809;48.224;8.572;2022-11-20T08:56:47;5.00;91.50
9542;DHT22;4809;48.224;8.572;2022-11-20T08:59:13;5.00;91.30
9542;DHT22;4809;48.224;8.572;2022-11-20T09:01:38;5.00;91.60
9542;DHT22;4809;48.224;8.572;2022-11-20T09:04:04;5.00;91.50
9542;DHT22;4809;48.224;8.572;2022-11-20T09:06:30;5.00;91.50
9542;DHT22;4809;48.224;8.572;2022-11-20T09:08:58;5.00;91.80
9542;DHT22;4809;48.224;8.572;2022-11-20T09:11:24;5.00;92.20
9542;DHT22;4809;48.224;8.572;2022-11-20T09:13:50;4.90;92.20
9542;DHT22;4809;48.224;8.572;2022-11-20T09:16:16;4.90;92.40
9542;DHT22;4809;48.224;8.572;2022-11-20T09:18:42;4.90;92.70
9542;DHT22;4809;48.224;8.572;2022-11-20T09:21:12;4.80;92.60
9542;DHT22;4809;48.224;8.572;2022-11-20T09:23:38;4.70;93.10
9542;DHT22;4809;48.224;8.572;2022-11-20T09:26:05;4.70;93.10
9542;DHT22;4809;48.224;8.572;2022-11-20T09:28:31;4.70;93.40
9542;DHT22;4809;48.224;8.572;2022-11-20T09:30:58;4.70;93.00
9542;DHT22;4809;48.224;8.572;2022-11-20T09:33:23;4.70;92.60
9542;DHT22;4809;48.224;8.572;2022-11-20T09:35:49;4.80;92.80
9542;DHT22;4809;48.224;8.572;2022-11-20T09:38:14;4.70;92.80
9542;DHT22;4809;48.224;8.572;2022-11-20T09:41:04;4.70;92.80
9542;DHT22;4809;48.224;8.572;2022-11-20T09:44:04;4.70;92.60
9542;DHT22;4809;48.224;8.572;2022-11-20T09:52:37;4.70;92.70
9542;DHT22;4809;48.224;8.572;2022-11-20T09:55:10;4.70;92.80
9542;DHT22;4809;48.224;8.572;2022-11-20T09:57:39;4.70;92.80
9542;DHT22;4809;48.224;8.572;2022-11-20T10:00:10;4.60;93.00
9542;DHT22;4809;48.224;8.572;2022-11-20T10:03:03;4.60;92.90
9542;DHT22;4809;48.224;8.572;2022-11-20T10:05:53;4.60;93.00
9542;DHT22;4809;48.224;8.572;2022-11-20T10:08:23;4.60;93.30
9542;DHT22;4809;48.224;8.572;2022-11-20T10:19:01;4.60;93.30
9542;DHT22;4809;48.224;8.572;2022-11-20T10:24:48;4.60;93.60
9542;DHT22;4809;48.224;8.572;2022-11-20T10:30:13;4.50;93.00
9542;DHT22;4809;48.224;8.572;2022-11-20T10:32:47;4.50;93.30
9542;DHT22;4809;48.224;8.572;2022-11-20T10:35:16;4.50;92.90
9542;DHT22;4809;48.224;8.572;2022-11-20T10:37:45;4.60;93.20
9542;DHT22;4809;48.224;8.572;2022-11-20T10:40:40;4.60;93.00
9542;DHT22;4809;48.224;8.572;2022-11-20T10:43:20;4.60;92.80
9542;DHT22;4809;48.224;8.572;2022-11-20T10:46:10;4.60;92.50
9542;DHT22;4809;48.224;8.572;2022-11-20T10:48:41;4.70;92.70
9542;DHT22;4809;48.224;8.572;2022-11-20T10:51:31;4.70;92.70
9542;DHT22;4809;48.224;8.572;2022-11-20T10:56:55;4.80;92.80
9542;DHT22;4809;48.224;8.572;2022-11-20T11:01:59;5.00;92.30
9542;DHT22;4809;48.224;8.572;2022-11-20T11:09:53;5.20;91.70
9542;DHT22;4809;48.224;8.572;2022-11-20T11:12:21;5.20;91.80
9542;DHT22;4809;48.224;8.572;2022-11-20T11:14:50;5.30;91.90
9542;DHT22;4809;48.224;8.572;2022-11-20T11:20:33;5.50;91.30
9542;DHT22;4809;48.224;8.572;2022-11-20T11:23:01;5.70;90.30
9542;DHT22;4809;48.224;8.572;2022-11-20T11:25:29;5.90;90.60
9542;DHT22;4809;48.224;8.572;2022-11-20T11:28:17;6.10;89.80
9542;DHT22;4809;48.224;8.572;2022-11-20T11:30:45;6.10;89.60
9542;DHT22;4809;48.224;8.572;2022-11-20T11:33:31;6.00;90.30
9542;DHT22;4809;48.224;8.572;2022-11-20T11:36:14;5.90;90.40
9542;DHT22;4809;48.224;8.572;2022-11-20T11:38:42;5.70;89.20
9542;DHT22;4809;48.224;8.572;2022-11-20T11:41:23;5.60;90.80
9542;DHT22;4809;48.224;8.572;2022-11-20T11:47:22;6.70;88.80
9542;DHT22;4809;48.224;8.572;2022-11-20T11:55:29;7.40;83.70
9542;DHT22;4809;48.224;8.572;2022-11-20T11:58:24;7.80;82.60
9542;DHT22;4809;48.224;8.572;2022-11-20T12:03:43;7.60;81.20
9542;DHT22;4809;48.224;8.572;2022-11-20T12:06:14;7.00;83.60
9542;DHT22;4809;48.224;8.572;2022-11-20T12:08:57;7.00;84.10
9542;DHT22;4809;48.224;8.572;2022-11-20T12:14:21;8.90;80.10
9542;DHT22;4809;48.224;8.572;2022-11-20T12:16:52;9.90;75.50
9542;DHT22;4809;48.224;8.572;2022-11-20T12:19:19;10.90;70.50
9542;DHT22;4809;48.224;8.572;2022-11-20T12:32:28;17.60;51.00
9542;DHT22;4809;48.224;8.572;2022-11-20T12:39:54;23.50;37.00
9542;DHT22;4809;48.224;8.572;2022-11-20T12:43:21;24.60;33.80
9542;DHT22;4809;48.224;8.572;2022-11-20T12:45:37;24.50;31.70
9542;DHT22;4809;48.224;8.572;2022-11-20T13:06:39;18.70;37.30
9542;DHT22;4809;48.224;8.572;2022-11-20T13:09:11;14.80;44.30
9542;DHT22;4809;48.224;8.572;2022-11-20T13:19:53;15.50;45.90
9542;DHT22;4809;48.224;8.572;2022-11-20T13:24:51;17.80;42.00
9542;DHT22;4809;48.224;8.572;2022-11-20T13:27:20;20.70;37.30
9542;DHT22;4809;48.224;8.572;2022-11-20T13:29:58;24.00;32.20
9542;DHT22;4809;48.224;8.572;2022-11-20T13:32:26;25.60;28.30
9542;DHT22;4809;48.224;8.572;2022-11-20T13:35:02;21.20;32.10
9542;DHT22;4809;48.224;8.572;2022-11-20T13:37:37;17.60;40.20
9542;DHT22;4809;48.224;8.572;2022-11-20T13:40:12;18.20;38.70
9542;DHT22;4809;48.224;8.572;2022-11-20T13:45:38;13.80;48.00
9542;DHT22;4809;48.224;8.572;2022-11-20T13:48:20;12.20;51.90
9542;DHT22;4809;48.224;8.572;2022-11-20T13:56:52;12.00;54.50
9542;DHT22;4809;48.224;8.572;2022-11-20T14:02:18;11.10;55.30
9542;DHT22;4809;48.224;8.572;2022-11-20T14:04:48;12.80;52.10
9542;DHT22;4809;48.224;8.572;2022-11-20T14:07:14;13.40;50.90
9542;DHT22;4809;48.224;8.572;2022-11-20T14:09:53;12.10;51.60
9542;DHT22;4809;48.224;8.572;2022-11-20T14:12:31;10.60;56.50
9542;DHT22;4809;48.224;8.572;2022-11-20T14:14:58;9.90;60.10
9542;DHT22;4809;48.224;8.572;2022-11-20T14:17:31;9.40;61.80
9542;DHT22;4809;48.224;8.572;2022-11-20T14:20:06;9.10;61.40
9542;DHT22;4809;48.224;8.572;2022-11-20T14:22:32;8.90;63.10
9542;DHT22;4809;48.224;8.572;2022-11-20T14:27:33;8.20;66.20
9542;DHT22;4809;48.224;8.572;2022-11-20T14:30:01;7.90;66.80
9542;DHT22;4809;48.224;8.572;2022-11-20T14:32:29;7.60;67.80
9542;DHT22;4809;48.224;8.572;2022-11-20T14:34:59;7.40;68.50
9542;DHT22;4809;48.224;8.572;2022-11-20T14:37:29;7.10;69.80
9542;DHT22;4809;48.224;8.572;2022-11-20T14:39:56;7.00;71.40
9542;DHT22;4809;48.224;8.572;2022-11-20T14:42:26;7.20;71.50
9542;DHT22;4809;48.224;8.572;2022-11-20T14:44:55;7.40;70.60
9542;DHT22;4809;48.224;8.572;2022-11-20T14:47:23;7.90;69.30
9542;DHT22;4809;48.224;8.572;2022-11-20T14:49:51;8.80;65.10
9542;DHT22;4809;48.224;8.572;2022-11-20T14:52:22;8.50;65.70
9542;DHT22;4809;48.224;8.572;2022-11-20T14:54:53;8.60;65.10
9542;DHT22;4809;48.224;8.572;2022-11-20T14:57:25;8.00;67.50
9542;DHT22;4809;48.224;8.572;2022-11-20T15:00:02;7.80;68.40
9542;DHT22;4809;48.224;8.572;2022-11-20T15:02:30;7.20;70.10
9542;DHT22;4809;48.224;8.572;2022-11-20T15:05:00;6.70;72.20
9542;DHT22;4809;48.224;8.572;2022-11-20T15:07:40;6.40;74.10
9542;DHT22;4809;48.224;8.572;2022-11-20T15:10:25;6.20;75.60
9542;DHT22;4809;48.224;8.572;2022-11-20T15:13:03;6.00;76.10
9542;DHT22;4809;48.224;8.572;2022-11-20T15:15:35;5.90;77.10
9542;DHT22;4809;48.224;8.572;2022-11-20T15:18:01;5.80;77.70
9542;DHT22;4809;48.224;8.572;2022-11-20T15:20:32;5.70;78.00
9542;DHT22;4809;48.224;8.572;2022-11-20T15:22:58;5.60;78.00
9542;DHT22;4809;48.224;8.572;2022-11-20T15:25:24;5.50;78.30
9542;DHT22;4809;48.224;8.572;2022-11-20T15:27:54;5.50;78.20
9542;DHT22;4809;48.224;8.572;2022-11-20T15:30:21;5.50;78.90
9542;DHT22;4809;48.224;8.572;2022-11-20T15:32:47;5.40;79.10
9542;DHT22;4809;48.224;8.572;2022-11-20T15:35:14;5.30;79.40
9542;DHT22;4809;48.224;8.572;2022-11-20T15:37:40;5.20;79.20
9542;DHT22;4809;48.224;8.572;2022-11-20T15:40:07;5.20;79.40
9542;DHT22;4809;48.224;8.572;2022-11-20T15:42:34;5.10;79.40
9542;DHT22;4809;48.224;8.572;2022-11-20T15:45:00;5.10;80.00
9542;DHT22;4809;48.224;8.572;2022-11-20T15:47:29;5.00;80.40
9542;DHT22;4809;48.224;8.572;2022-11-20T15:49:55;5.00;80.70
9542;DHT22;4809;48.224;8.572;2022-11-20T15:52:21;5.00;80.60
9542;DHT22;4809;48.224;8.572;2022-11-20T15:54:46;5.00;80.70
9542;DHT22;4809;48.224;8.572;2022-11-20T15:57:12;5.00;81.20
9542;DHT22;4809;48.224;8.572;2022-11-20T15:59:38;5.00;81.30
9542;DHT22;4809;48.224;8.572;2022-11-20T16:02:14;4.90;81.30
9542;DHT22;4809;48.224;8.572;2022-11-20T16:04:40;4.90;81.50
9542;DHT22;4809;48.224;8.572;2022-11-20T16:07:05;4.90;82.00
9542;DHT22;4809;48.224;8.572;2022-11-20T16:09:31;4.80;81.90
9542;DHT22;4809;48.224;8.572;2022-11-20T16:11:57;4.80;82.40
9542;DHT22;4809;48.224;8.572;2022-11-20T16:14:28;4.80;82.30
9542;DHT22;4809;48.224;8.572;2022-11-20T16:17:12;4.70;82.10
9542;DHT22;4809;48.224;8.572;2022-11-20T16:19:38;4.80;82.20
9542;DHT22;4809;48.224;8.572;2022-11-20T16:22:04;4.70;82.10
9542;DHT22;4809;48.224;8.572;2022-11-20T16:24:30;4.70;82.60
9542;DHT22;4809;48.224;8.572;2022-11-20T16:26:56;4.70;82.40
9542;DHT22;4809;48.224;8.572;2022-11-20T16:29:22;4.70;82.80
9542;DHT22;4809;48.224;8.572;2022-11-20T16:31:48;4.70;82.00
9542;DHT22;4809;48.224;8.572;2022-11-20T16:34:16;4.70;82.30
9542;DHT22;4809;48.224;8.572;2022-11-20T16:36:42;4.70;82.10
9542;DHT22;4809;48.224;8.572;2022-11-20T16:39:09;4.80;82.00
9542;DHT22;4809;48.224;8.572;2022-11-20T16:41:35;4.80;82.10
9542;DHT22;4809;48.224;8.572;2022-11-20T16:44:06;4.80;82.00
9542;DHT22;4809;48.224;8.572;2022-11-20T16:46:32;4.80;82.20
9542;DHT22;4809;48.224;8.572;2022-11-20T16:49:00;4.80;82.20
9542;DHT22;4809;48.224;8.572;2022-11-20T16:51:28;4.70;82.40
9542;DHT22;4809;48.224;8.572;2022-11-20T16:53:54;4.70;82.60
9542;DHT22;4809;48.224;8.572;2022-11-20T16:56:24;4.70;83.00
9542;DHT22;4809;48.224;8.572;2022-11-20T16:58:52;4.70;83.50
9542;DHT22;4809;48.224;8.572;2022-11-20T17:01:19;4.70;83.50
9542;DHT22;4809;48.224;8.572;2022-11-20T17:03:47;4.70;83.70
9542;DHT22;4809;48.224;8.572;2022-11-20T17:06:20;4.70;83.70
9542;DHT22;4809;48.224;8.572;2022-11-20T17:08:47;4.70;83.50
9542;DHT22;4809;48.224;8.572;2022-11-20T17:11:14;4.60;83.50
9542;DHT22;4809;48.224;8.572;2022-11-20T17:13:40;4.60;83.70
9542;DHT22;4809;48.224;8.572;2022-11-20T17:16:10;4.60;83.60
9542;DHT22;4809;48.224;8.572;2022-11-20T17:18:36;4.60;83.60
9542;DHT22;4809;48.224;8.572;2022-11-20T17:21:02;4.60;84.00
9542;DHT22;4809;48.224;8.572;2022-11-20T17:23:31;4.60;83.80
9542;DHT22;4809;48.224;8.572;2022-11-20T17:28:28;4.50;84.00
9542;DHT22;4809;48.224;8.572;2022-11-20T17:31:07;4.50;84.30
9542;DHT22;4809;48.224;8.572;2022-11-20T17:33:34;4.40;84.90
9542;DHT22;4809;48.224;8.572;2022-11-20T17:36:01;4.30;85.40
9542;DHT22;4809;48.224;8.572;2022-11-20T17:38:26;4.30;85.20
9542;DHT22;4809;48.224;8.572;2022-11-20T17:40:52;4.30;85.50
9542;DHT22;4809;48.224;8.572;2022-11-20T17:43:18;4.40;85.20
9542;DHT22;4809;48.224;8.572;2022-11-20T17:45:44;4.30;85.30
9542;DHT22;4809;48.224;8.572;2022-11-20T17:48:10;4.30;85.60
9542;DHT22;4809;48.224;8.572;2022-11-20T17:50:36;4.30;85.30
9542;DHT22;4809;48.224;8.572;2022-11-20T17:53:01;4.40;85.60
9542;DHT22;4809;48.224;8.572;2022-11-20T17:55:27;4.40;85.60
9542;DHT22;4809;48.224;8.572;2022-11-20T17:58:13;4.40;85.30
9542;DHT22;4809;48.224;8.572;2022-11-20T18:00:39;4.40;85.20
9542;DHT22;4809;48.224;8.572;2022-11-20T18:03:05;4.40;85.70
9542;DHT22;4809;48.224;8.572;2022-11-20T18:05:31;4.40;85.70
9542;DHT22;4809;48.224;8.572;2022-11-20T18:07:56;4.40;85.20
9542;DHT22;4809;48.224;8.572;2022-11-20T18:10:22;4.40;85.50
9542;DHT22;4809;48.224;8.572;2022-11-20T18:12:48;4.40;85.50
9542;DHT22;4809;48.224;8.572;2022-11-20T18:15:14;4.50;84.90
9542;DHT22;4809;48.224;8.572;2022-11-20T18:17:39;4.50;83.10
9542;DHT22;4809;48.224;8.572;2022-11-20T18:20:05;4.50;84.00
9542;DHT22;4809;48.224;8.572;2022-11-20T18:22:33;4.50;84.40
9542;DHT22;4809;48.224;8.572;2022-11-20T18:24:59;4.50;84.30